createdAt,value
2023-12-27T00:00:50.274Z,994.362
2023-12-27T00:02:49.980Z,994.379
2023-12-27T00:04:49.785Z,994.415
2023-12-27T00:06:49.693Z,994.365
2023-12-27T00:08:49.656Z,994.397
2023-12-27T00:10:49.473Z,994.413
2023-12-27T00:12:50.268Z,994.402
2023-12-27T00:14:50.049Z,994.445
2023-12-27T00:16:49.706Z,994.445
2023-12-27T00:18:50.432Z,994.422
2023-12-27T00:20:50.090Z,994.424
2023-12-27T00:22:49.752Z,994.474
2023-12-27T00:24:49.529Z,994.390
2023-12-27T00:26:49.342Z,994.296
2023-12-27T00:28:50.175Z,994.377
2023-12-27T00:30:50.025Z,994.342
2023-12-27T00:32:49.800Z,994.460
2023-12-27T00:34:49.644Z,994.373
2023-12-27T00:36:49.410Z,994.431
2023-12-27T00:38:50.309Z,994.353
2023-12-27T00:40:50.105Z,994.442
2023-12-27T00:42:49.848Z,994.425
2023-12-27T00:44:49.699Z,994.460
2023-12-27T00:46:49.547Z,994.522
2023-12-27T00:48:50.418Z,994.584
2023-12-27T00:50:49.404Z,994.548
2023-12-27T00:52:50.134Z,994.569
2023-12-27T00:54:49.743Z,994.559
2023-12-27T00:56:49.570Z,994.603
2023-12-27T00:58:49.403Z,994.556
2023-12-27T01:00:50.258Z,994.624
2023-12-27T01:02:50.002Z,994.509
2023-12-27T01:04:49.876Z,994.562
2023-12-27T01:06:49.656Z,994.631
2023-12-27T01:08:49.476Z,994.631
2023-12-27T01:10:50.285Z,994.645
2023-12-27T01:12:50.117Z,994.760
2023-12-27T01:14:49.948Z,994.732
2023-12-27T01:16:49.699Z,994.663
2023-12-27T01:18:49.702Z,994.816
2023-12-27T01:20:49.596Z,994.775
2023-12-27T01:22:49.395Z,994.821
2023-12-27T01:24:49.416Z,994.830
2023-12-27T01:26:50.183Z,994.784
2023-12-27T01:28:49.811Z,994.857
2023-12-27T01:30:49.711Z,994.846
2023-12-27T01:32:49.481Z,994.833
2023-12-27T01:34:50.396Z,994.981
2023-12-27T01:36:50.063Z,994.891
2023-12-27T01:38:49.664Z,994.831
2023-12-27T01:40:49.540Z,994.821
2023-12-27T01:42:50.304Z,994.821
2023-12-27T01:44:49.904Z,994.942
2023-12-27T01:46:49.781Z,994.835
2023-12-27T01:48:49.905Z,994.839
2023-12-27T01:50:49.743Z,994.765
2023-12-27T01:52:49.608Z,994.771
2023-12-27T01:54:49.411Z,994.910
2023-12-27T01:56:50.221Z,994.913
2023-12-27T01:58:50.047Z,994.959
2023-12-27T02:00:49.971Z,994.874
2023-12-27T02:02:49.625Z,994.881
2023-12-27T02:04:49.619Z,995.011
2023-12-27T02:06:49.484Z,994.969
2023-12-27T02:08:50.314Z,994.914
2023-12-27T02:10:50.140Z,994.914
2023-12-27T02:12:49.921Z,994.885
2023-12-27T02:14:49.755Z,994.887
2023-12-27T02:16:49.582Z,994.875
2023-12-27T02:18:49.463Z,994.877
2023-12-27T02:20:49.387Z,994.924
2023-12-27T02:22:50.280Z,994.778
2023-12-27T02:24:50.012Z,994.717
2023-12-27T02:26:49.804Z,994.796
2023-12-27T02:28:49.674Z,994.682
2023-12-27T02:30:49.550Z,994.665
2023-12-27T02:32:49.711Z,994.754
2023-12-27T02:34:49.942Z,994.554
2023-12-27T02:36:49.689Z,994.661
2023-12-27T02:38:50.303Z,994.660
2023-12-27T02:40:50.142Z,994.709
2023-12-27T02:42:49.936Z,994.743
2023-12-27T02:44:49.795Z,994.722
2023-12-27T02:46:49.634Z,994.613
2023-12-27T02:48:49.508Z,994.639
2023-12-27T02:50:50.236Z,994.611
2023-12-27T02:52:50.067Z,994.596
2023-12-27T02:54:49.833Z,994.595
2023-12-27T02:56:49.633Z,994.684
2023-12-27T02:58:50.265Z,994.689
2023-12-27T03:00:50.175Z,994.607
2023-12-27T03:02:49.908Z,994.622
2023-12-27T03:04:49.830Z,994.546
2023-12-27T03:06:49.545Z,994.484
2023-12-27T03:08:50.355Z,994.565
2023-12-27T03:10:50.157Z,994.524
2023-12-27T03:12:49.953Z,994.396
2023-12-27T03:14:49.761Z,994.433
2023-12-27T03:16:49.507Z,994.432
2023-12-27T03:18:50.434Z,994.379
2023-12-27T03:20:50.123Z,994.340
2023-12-27T03:22:49.928Z,994.339
2023-12-27T03:24:49.551Z,994.307
2023-12-27T03:26:50.329Z,994.326
2023-12-27T03:28:49.972Z,994.353
2023-12-27T03:30:49.984Z,994.291
2023-12-27T03:32:49.878Z,994.319
2023-12-27T03:34:49.850Z,994.287
2023-12-27T03:36:49.645Z,994.322
2023-12-27T03:38:49.447Z,994.431
2023-12-27T03:40:50.298Z,994.379
2023-12-27T03:42:50.072Z,994.291
2023-12-27T03:44:49.872Z,994.419
2023-12-27T03:46:49.505Z,994.332
2023-12-27T03:48:49.480Z,994.360
2023-12-27T03:50:50.209Z,994.323
2023-12-27T03:52:50.069Z,994.270
2023-12-27T03:54:49.845Z,994.269
2023-12-27T03:56:49.682Z,994.299
2023-12-27T03:58:49.526Z,994.244
2023-12-27T04:00:50.250Z,994.363
2023-12-27T04:02:50.177Z,994.344
2023-12-27T04:04:49.939Z,994.455
2023-12-27T04:06:49.793Z,994.450
2023-12-27T04:08:49.565Z,994.547
2023-12-27T04:10:49.405Z,994.598
2023-12-27T04:12:50.225Z,994.619
2023-12-27T04:14:50.001Z,994.654
2023-12-27T04:16:49.824Z,994.673
2023-12-27T04:18:49.784Z,994.683
2023-12-27T04:20:49.676Z,994.674
2023-12-27T04:22:49.501Z,994.654
2023-12-27T04:24:50.281Z,994.652
2023-12-27T04:26:50.155Z,994.367
2023-12-27T04:28:49.930Z,994.394
2023-12-27T04:30:49.852Z,994.203
2023-12-27T04:32:49.553Z,994.281
2023-12-27T04:34:49.356Z,994.283
2023-12-27T04:36:50.169Z,994.280
2023-12-27T04:38:49.773Z,994.280
2023-12-27T04:40:49.609Z,994.234
2023-12-27T04:42:49.409Z,994.258
2023-12-27T04:44:50.255Z,994.287
2023-12-27T04:46:50.065Z,994.236
2023-12-27T04:48:50.103Z,994.196
2023-12-27T04:50:49.848Z,994.257
2023-12-27T04:52:49.495Z,994.178
2023-12-27T04:54:50.322Z,994.166
2023-12-27T04:56:50.118Z,994.202
2023-12-27T04:58:49.711Z,994.130
2023-12-27T05:00:50.578Z,994.158
2023-12-27T05:02:49.405Z,994.231
2023-12-27T05:04:49.382Z,994.117
2023-12-27T05:06:50.181Z,994.077
2023-12-27T05:08:49.981Z,994.077
2023-12-27T05:10:49.799Z,994.058
2023-12-27T05:12:49.861Z,994.184
2023-12-27T05:14:49.646Z,994.068
2023-12-27T05:16:49.376Z,994.224
2023-12-27T05:18:50.241Z,994.179
2023-12-27T05:20:50.157Z,994.122
2023-12-27T05:22:49.804Z,994.245
2023-12-27T05:24:49.441Z,994.264
2023-12-27T05:26:50.230Z,994.296
2023-12-27T05:28:50.091Z,994.225
2023-12-27T05:30:50.059Z,994.273
2023-12-27T05:32:49.910Z,994.207
2023-12-27T05:34:49.876Z,994.215
2023-12-27T05:36:49.786Z,994.253
2023-12-27T05:38:49.544Z,994.156
2023-12-27T05:40:50.366Z,994.253
2023-12-27T05:42:50.176Z,994.193
2023-12-27T05:44:49.968Z,994.207
2023-12-27T05:46:49.833Z,994.304
2023-12-27T05:48:49.775Z,994.299
2023-12-27T05:50:49.675Z,994.302
2023-12-27T05:52:49.426Z,994.385
2023-12-27T05:54:50.241Z,994.310
2023-12-27T05:56:50.054Z,994.336
2023-12-27T05:58:49.701Z,994.177
2023-12-27T06:00:49.516Z,994.240
2023-12-27T06:02:50.338Z,994.273
2023-12-27T06:04:50.334Z,994.288
2023-12-27T06:06:50.094Z,994.288
2023-12-27T06:08:49.714Z,994.216
2023-12-27T06:10:49.367Z,994.132
2023-12-27T06:12:50.166Z,994.132
2023-12-27T06:14:49.771Z,994.166
2023-12-27T06:16:49.619Z,994.289
2023-12-27T06:18:49.441Z,994.336
2023-12-27T06:20:50.237Z,994.306
2023-12-27T06:22:50.166Z,994.313
2023-12-27T06:24:49.879Z,994.300
2023-12-27T06:26:49.697Z,994.312
2023-12-27T06:28:49.507Z,994.409
2023-12-27T06:30:50.461Z,994.333
2023-12-27T06:32:50.400Z,994.352
2023-12-27T06:34:50.349Z,994.286
2023-12-27T06:36:50.238Z,994.222
2023-12-27T06:38:50.165Z,994.316
2023-12-27T06:40:49.986Z,994.282
2023-12-27T06:42:49.770Z,994.270
2023-12-27T06:44:49.601Z,994.236
2023-12-27T06:46:49.432Z,994.261
2023-12-27T06:48:50.269Z,994.293
2023-12-27T06:50:50.045Z,994.240
2023-12-27T06:52:49.644Z,994.173
2023-12-27T06:54:50.239Z,994.243
2023-12-27T06:56:51.684Z,994.228
2023-12-27T06:58:49.595Z,994.242
2023-12-27T07:00:49.583Z,994.155
2023-12-27T07:02:49.480Z,994.183
2023-12-27T07:04:50.339Z,994.268
2023-12-27T07:06:50.300Z,994.204
2023-12-27T07:08:50.065Z,994.261
2023-12-27T07:10:49.667Z,994.138
2023-12-27T07:12:49.578Z,994.192
2023-12-27T07:14:50.345Z,994.172
2023-12-27T07:16:50.140Z,994.172
2023-12-27T07:18:50.074Z,994.166
2023-12-27T07:20:49.955Z,994.076
2023-12-27T07:22:49.595Z,994.094
2023-12-27T07:24:49.468Z,994.125
2023-12-27T07:26:50.221Z,994.112
2023-12-27T07:28:50.008Z,994.081
2023-12-27T07:32:49.468Z,994.004
2023-12-27T07:34:50.305Z,994.031
2023-12-27T07:36:50.170Z,993.994
2023-12-27T07:38:49.890Z,993.972
2023-12-27T07:40:49.740Z,994.098
2023-12-27T07:42:49.514Z,993.995
2023-12-27T07:44:51.681Z,994.107
2023-12-27T07:46:49.748Z,994.013
2023-12-27T07:48:49.628Z,994.118
2023-12-27T07:50:49.370Z,994.144
2023-12-27T07:52:50.190Z,994.143
2023-12-27T07:54:50.021Z,994.171
2023-12-27T07:56:49.785Z,994.147
2023-12-27T07:58:49.436Z,994.202
2023-12-27T08:00:50.491Z,994.214
2023-12-27T08:02:50.244Z,994.198
2023-12-27T08:04:50.073Z,994.248
2023-12-27T08:06:49.671Z,994.342
2023-12-27T08:08:50.297Z,994.474
2023-12-27T08:10:50.145Z,994.425
2023-12-27T08:12:49.935Z,994.486
2023-12-27T08:14:49.765Z,994.510
2023-12-27T08:16:49.586Z,994.414
2023-12-27T08:18:49.439Z,994.523
2023-12-27T08:20:50.159Z,994.470
2023-12-27T08:22:50.008Z,994.449
2023-12-27T08:24:49.811Z,994.453
2023-12-27T08:26:49.680Z,994.393
2023-12-27T08:28:49.475Z,994.520
2023-12-27T08:30:50.354Z,994.414
2023-12-27T08:32:50.080Z,994.533
2023-12-27T08:34:50.077Z,994.622
2023-12-27T08:36:49.937Z,994.586
2023-12-27T08:38:49.786Z,994.673
2023-12-27T08:40:51.920Z,994.612
2023-12-27T08:42:49.955Z,994.540
2023-12-27T08:44:49.602Z,994.633
2023-12-27T08:46:49.405Z,994.599
2023-12-27T08:48:50.254Z,994.467
2023-12-27T08:50:50.186Z,994.540
2023-12-27T08:52:49.796Z,994.513
2023-12-27T08:54:49.424Z,994.426
2023-12-27T08:56:50.312Z,994.424
2023-12-27T08:58:50.059Z,994.365
2023-12-27T09:00:49.821Z,994.324
2023-12-27T09:02:49.696Z,994.557
2023-12-27T09:04:50.345Z,994.614
2023-12-27T09:06:50.158Z,994.586
2023-12-27T09:08:49.977Z,994.668
2023-12-27T09:10:49.762Z,994.642
2023-12-27T09:12:49.640Z,994.617
2023-12-27T09:14:49.393Z,994.617
2023-12-27T09:16:50.201Z,994.489
2023-12-27T09:18:50.135Z,994.593
2023-12-27T09:20:49.909Z,994.514
2023-12-27T09:22:49.816Z,994.450
2023-12-27T09:24:49.557Z,994.520
2023-12-27T09:26:49.361Z,994.328
2023-12-27T09:28:50.189Z,994.415
2023-12-27T09:30:50.053Z,994.433
2023-12-27T09:32:49.930Z,994.280
2023-12-27T09:34:49.727Z,994.229
2023-12-27T09:36:49.639Z,994.248
2023-12-27T09:38:50.235Z,994.108
2023-12-27T09:40:49.884Z,994.043
2023-12-27T09:42:49.676Z,994.076
2023-12-27T09:44:50.296Z,994.125
2023-12-27T09:46:50.116Z,994.204
2023-12-27T09:48:50.020Z,994.170
2023-12-27T09:50:49.720Z,994.084
2023-12-27T09:52:49.600Z,994.174
2023-12-27T09:54:50.146Z,994.167
2023-12-27T09:56:49.948Z,993.989
2023-12-27T09:58:49.877Z,993.888
2023-12-27T10:00:49.759Z,993.823
2023-12-27T10:02:49.539Z,993.825
2023-12-27T10:04:50.333Z,993.822
2023-12-27T10:06:50.194Z,993.735
2023-12-27T10:08:49.963Z,993.762
2023-12-27T10:10:49.821Z,993.627
2023-12-27T10:12:49.645Z,993.531
2023-12-27T10:14:49.429Z,993.385
2023-12-27T10:16:50.260Z,993.364
2023-12-27T10:18:50.137Z,993.399
2023-12-27T10:20:49.845Z,993.357
2023-12-27T10:22:49.731Z,993.330
2023-12-27T10:24:49.495Z,993.269
2023-12-27T10:26:50.322Z,993.339
2023-12-27T10:28:50.153Z,993.222
2023-12-27T10:30:49.982Z,993.149
2023-12-27T10:32:49.810Z,993.166
2023-12-27T10:34:49.975Z,993.053
2023-12-27T10:36:49.787Z,993.198
2023-12-27T10:38:49.673Z,993.161
2023-12-27T10:40:49.478Z,993.183
2023-12-27T10:42:50.210Z,993.175
2023-12-27T10:44:50.040Z,993.140
2023-12-27T10:46:49.872Z,993.088
2023-12-27T10:48:49.762Z,993.023
2023-12-27T10:50:49.522Z,992.965
2023-12-27T10:52:50.370Z,992.966
2023-12-27T10:54:50.123Z,992.874
2023-12-27T10:56:49.903Z,992.912
2023-12-27T10:58:49.776Z,992.916
2023-12-27T11:00:49.780Z,992.872
2023-12-27T11:02:49.594Z,992.800
2023-12-27T11:04:49.437Z,992.754
2023-12-27T11:06:50.307Z,992.705
2023-12-27T11:08:50.000Z,992.730
2023-12-27T11:10:49.751Z,992.702
2023-12-27T11:12:49.478Z,992.666
2023-12-27T11:14:50.282Z,992.662
2023-12-27T11:16:50.134Z,992.642
2023-12-27T11:18:49.970Z,992.668
2023-12-27T11:20:49.706Z,992.723
2023-12-27T11:22:49.584Z,992.605
2023-12-27T11:24:49.421Z,992.507
2023-12-27T11:26:50.149Z,992.484
2023-12-27T11:28:49.974Z,992.531
2023-12-27T11:30:49.907Z,992.606
2023-12-27T11:32:49.661Z,992.520
2023-12-27T11:34:49.576Z,992.535
2023-12-27T11:36:49.493Z,992.539
2023-12-27T11:38:50.277Z,992.429
2023-12-27T11:40:50.126Z,992.396
2023-12-27T11:42:49.893Z,992.178
2023-12-27T11:44:49.706Z,992.112
2023-12-27T11:46:49.503Z,992.112
2023-12-27T11:48:50.420Z,992.186
2023-12-27T11:50:50.185Z,992.111
2023-12-27T11:52:55.907Z,992.082
2023-12-27T11:54:49.568Z,992.078
2023-12-27T11:56:49.397Z,992.071
2023-12-27T11:58:50.185Z,992.046
2023-12-27T12:00:50.051Z,992.071
2023-12-27T12:02:50.487Z,991.956
2023-12-27T12:04:50.030Z,992.011
2023-12-27T12:06:49.847Z,991.786
2023-12-27T12:08:50.682Z,991.722
2023-12-27T12:10:49.670Z,991.635
2023-12-27T12:12:49.680Z,991.512
2023-12-27T12:14:50.769Z,991.615
2023-12-27T12:16:49.509Z,991.453
2023-12-27T12:18:49.462Z,991.422
2023-12-27T12:20:49.996Z,991.452
2023-12-27T12:22:49.584Z,991.382
2023-12-27T12:24:49.482Z,991.357
2023-12-27T12:26:50.210Z,991.266
2023-12-27T12:28:50.002Z,991.269
2023-12-27T12:30:50.014Z,991.257
2023-12-27T12:32:49.936Z,991.346
2023-12-27T12:34:49.718Z,991.389
2023-12-27T12:36:49.503Z,991.305
2023-12-27T12:38:50.276Z,991.378
2023-12-27T12:40:50.167Z,991.284
2023-12-27T12:42:49.943Z,991.206
2023-12-27T12:44:49.749Z,991.109
2023-12-27T12:46:49.531Z,991.105
2023-12-27T12:48:50.312Z,990.968
2023-12-27T12:50:50.166Z,991.001
2023-12-27T12:52:49.776Z,991.026
2023-12-27T12:54:49.728Z,991.058
2023-12-27T12:56:49.605Z,991.002
2023-12-27T12:58:49.437Z,990.950
2023-12-27T13:00:50.382Z,990.904
2023-12-27T13:02:50.343Z,990.905
2023-12-27T13:04:50.080Z,990.808
2023-12-27T13:06:49.973Z,990.821
2023-12-27T13:08:49.686Z,990.828
2023-12-27T13:10:50.293Z,990.819
2023-12-27T13:12:50.168Z,990.675
2023-12-27T13:14:49.950Z,990.713
2023-12-27T13:16:49.819Z,990.595
2023-12-27T13:18:49.668Z,990.595
2023-12-27T13:20:49.408Z,990.559
2023-12-27T13:22:50.209Z,990.519
2023-12-27T13:24:50.075Z,990.562
2023-12-27T13:26:49.799Z,990.467
2023-12-27T13:28:49.633Z,990.483
2023-12-27T13:30:49.487Z,990.425
2023-12-27T13:32:50.344Z,990.422
2023-12-27T13:34:50.239Z,990.358
2023-12-27T13:36:50.253Z,990.344
2023-12-27T13:38:50.096Z,990.375
2023-12-27T13:40:49.916Z,990.347
2023-12-27T13:42:49.770Z,990.248
2023-12-27T13:44:49.487Z,990.292
2023-12-27T13:46:50.259Z,990.254
2023-12-27T13:48:50.217Z,990.254
2023-12-27T13:50:50.084Z,990.195
2023-12-27T13:52:49.682Z,990.179
2023-12-27T13:54:50.343Z,990.213
2023-12-27T13:56:50.120Z,990.138
2023-12-27T13:58:49.783Z,990.186
2023-12-27T14:00:49.821Z,990.292
2023-12-27T14:02:49.764Z,990.254
2023-12-27T14:04:49.640Z,990.264
2023-12-27T14:06:49.463Z,990.187
2023-12-27T14:08:50.230Z,990.210
2023-12-27T14:10:50.032Z,990.139
2023-12-27T14:12:49.750Z,990.127
2023-12-27T14:14:49.475Z,990.167
2023-12-27T14:16:50.271Z,990.153
2023-12-27T14:18:50.379Z,990.218
2023-12-27T14:20:50.107Z,990.189
2023-12-27T14:22:49.692Z,990.179
2023-12-27T14:24:50.390Z,990.154
2023-12-27T14:26:50.177Z,990.085
2023-12-27T14:28:49.951Z,990.056
2023-12-27T14:30:49.705Z,990.079
2023-12-27T14:32:49.507Z,990.028
2023-12-27T14:34:49.595Z,989.986
2023-12-27T14:36:49.532Z,989.940
2023-12-27T14:38:50.252Z,990.007
2023-12-27T14:40:50.073Z,990.031
2023-12-27T14:42:49.784Z,990.020
2023-12-27T14:44:49.710Z,990.026
2023-12-27T14:46:49.505Z,990.063
2023-12-27T14:48:50.409Z,990.064
2023-12-27T14:50:50.140Z,990.053
2023-12-27T14:52:49.962Z,990.092
2023-12-27T14:54:49.907Z,990.049
2023-12-27T14:56:49.784Z,990.029
2023-12-27T14:58:49.579Z,989.901
2023-12-27T15:00:50.327Z,989.866
2023-12-27T15:02:50.212Z,989.883
2023-12-27T15:04:50.154Z,989.885
2023-12-27T15:06:50.188Z,989.827
2023-12-27T15:08:50.061Z,989.830
2023-12-27T15:10:49.644Z,989.764
2023-12-27T15:12:49.590Z,989.757
2023-12-27T15:14:50.296Z,989.747
2023-12-27T15:16:50.114Z,989.651
2023-12-27T15:18:50.014Z,989.706
2023-12-27T15:20:49.728Z,989.730
2023-12-27T15:22:49.467Z,989.638
2023-12-27T15:24:50.394Z,989.776
2023-12-27T15:26:50.323Z,989.754
2023-12-27T15:28:50.111Z,989.770
2023-12-27T15:30:50.103Z,989.700
2023-12-27T15:32:50.013Z,989.793
2023-12-27T15:34:49.959Z,989.725
2023-12-27T15:36:50.093Z,989.724
2023-12-27T15:38:50.000Z,989.844
2023-12-27T15:40:49.786Z,989.806
2023-12-27T15:42:49.809Z,989.748
2023-12-27T15:44:49.633Z,989.748
2023-12-27T15:46:49.455Z,989.765
2023-12-27T15:48:50.419Z,989.775
2023-12-27T15:50:50.282Z,989.839
2023-12-27T15:52:50.077Z,989.843
2023-12-27T15:54:49.915Z,989.792
2023-12-27T15:56:49.705Z,989.843
2023-12-27T15:58:50.338Z,989.805
2023-12-27T16:00:50.190Z,989.736
2023-12-27T16:02:49.985Z,989.762
2023-12-27T16:04:49.855Z,989.754
2023-12-27T16:06:49.755Z,989.756
2023-12-27T16:08:49.605Z,989.686
2023-12-27T16:10:49.421Z,989.716
2023-12-27T16:12:50.312Z,989.732
2023-12-27T16:14:50.051Z,989.771
2023-12-27T16:16:49.888Z,989.618
2023-12-27T16:18:49.821Z,989.645
2023-12-27T16:20:49.861Z,989.680
2023-12-27T16:22:50.210Z,989.756
2023-12-27T16:24:50.039Z,989.745
2023-12-27T16:26:49.815Z,989.695
2023-12-27T16:28:49.631Z,989.734
2023-12-27T16:30:49.580Z,989.733
2023-12-27T16:32:50.316Z,989.694
2023-12-27T16:34:50.265Z,989.678
2023-12-27T16:36:50.214Z,989.595
2023-12-27T16:38:49.997Z,989.652
2023-12-27T16:40:49.616Z,989.551
2023-12-27T16:42:50.266Z,989.658
2023-12-27T16:44:49.867Z,989.685
2023-12-27T16:46:49.716Z,989.706
2023-12-27T16:48:51.090Z,989.723
2023-12-27T16:50:49.454Z,989.825
2023-12-27T16:52:50.219Z,989.776
2023-12-27T16:54:50.076Z,989.727
2023-12-27T16:56:49.827Z,989.702
2023-12-27T16:58:49.448Z,989.780
2023-12-27T17:00:50.411Z,989.686
2023-12-27T17:02:50.336Z,989.641
2023-12-27T17:04:50.129Z,989.647
2023-12-27T17:06:49.954Z,989.616
2023-12-27T17:08:49.773Z,989.566
2023-12-27T17:10:49.737Z,989.524
2023-12-27T17:12:49.622Z,989.521
2023-12-27T17:14:49.396Z,989.556
2023-12-27T17:16:50.196Z,989.584
2023-12-27T17:18:50.150Z,989.522
2023-12-27T17:20:50.027Z,989.466
2023-12-27T17:22:49.878Z,989.474
2023-12-27T17:24:49.705Z,989.489
2023-12-27T17:26:49.459Z,989.590
2023-12-27T17:28:50.269Z,989.659
2023-12-27T17:30:49.946Z,989.598
2023-12-27T17:32:49.768Z,989.576
2023-12-27T17:34:49.654Z,989.573
2023-12-27T17:36:49.552Z,989.590
2023-12-27T17:38:49.384Z,989.537
2023-12-27T17:40:50.162Z,989.499
2023-12-27T17:42:50.090Z,989.508
2023-12-27T17:44:49.767Z,989.379
2023-12-27T17:46:49.639Z,989.356
2023-12-27T17:48:49.572Z,989.379
2023-12-27T17:50:49.471Z,989.427
2023-12-27T17:52:50.282Z,989.348
2023-12-27T17:54:50.317Z,989.373
2023-12-27T17:56:50.066Z,989.384
2023-12-27T17:58:49.681Z,989.373
2023-12-27T18:00:49.739Z,989.392
2023-12-27T18:02:50.547Z,989.300
2023-12-27T18:04:49.986Z,989.484
2023-12-27T18:06:49.849Z,989.394
2023-12-27T18:08:49.604Z,989.346
2023-12-27T18:10:49.414Z,989.439
2023-12-27T18:12:50.316Z,989.406
2023-12-27T18:14:50.320Z,989.358
2023-12-27T18:16:50.215Z,989.380
2023-12-27T18:18:50.195Z,989.332
2023-12-27T18:20:50.053Z,989.379
2023-12-27T18:22:49.831Z,989.238
2023-12-27T18:24:49.547Z,989.286
2023-12-27T18:26:50.299Z,989.350
2023-12-27T18:28:50.107Z,989.279
2023-12-27T18:30:50.017Z,989.258
2023-12-27T18:32:49.770Z,989.200
2023-12-27T18:34:49.637Z,989.204
2023-12-27T18:36:49.881Z,989.220
2023-12-27T18:38:49.801Z,989.241
2023-12-27T18:40:49.602Z,989.190
2023-12-27T18:42:49.518Z,989.155
2023-12-27T18:44:49.415Z,989.225
2023-12-27T18:46:50.232Z,989.211
2023-12-27T18:48:50.207Z,989.188
2023-12-27T18:50:50.103Z,989.154
2023-12-27T18:52:49.885Z,989.179
2023-12-27T18:54:49.583Z,989.196
2023-12-27T18:56:50.326Z,989.155
2023-12-27T18:58:50.107Z,989.203
2023-12-27T19:00:50.146Z,989.200
2023-12-27T19:02:50.010Z,989.193
2023-12-27T19:04:49.759Z,989.219
2023-12-27T19:06:49.755Z,989.219
2023-12-27T19:08:49.608Z,989.133
2023-12-27T19:10:49.408Z,989.090
2023-12-27T19:12:50.296Z,989.040
2023-12-27T19:14:50.052Z,988.957
2023-12-27T19:16:49.847Z,989.008
2023-12-27T19:18:49.797Z,989.063
2023-12-27T19:20:49.516Z,988.957
2023-12-27T19:22:50.322Z,988.979
2023-12-27T19:24:50.132Z,989.069
2023-12-27T19:26:49.903Z,989.097
2023-12-27T19:28:49.843Z,989.041
2023-12-27T19:30:49.677Z,989.149
2023-12-27T19:32:49.429Z,989.020
2023-12-27T19:34:50.371Z,989.164
2023-12-27T19:36:50.420Z,989.045
2023-12-27T19:38:50.133Z,989.072
2023-12-27T19:40:49.942Z,989.048
2023-12-27T19:42:49.835Z,989.063
2023-12-27T19:44:49.552Z,989.003
2023-12-27T19:46:49.356Z,989.067
2023-12-27T19:48:50.288Z,988.920
2023-12-27T19:50:50.226Z,988.845
2023-12-27T19:52:50.036Z,988.836
2023-12-27T19:54:49.858Z,988.976
2023-12-27T19:56:49.645Z,988.932
2023-12-27T19:58:50.240Z,988.887
2023-12-27T20:00:50.104Z,988.932
2023-12-27T20:02:50.080Z,988.932
2023-12-27T20:04:49.997Z,988.965
2023-12-27T20:06:49.890Z,988.965
2023-12-27T20:08:49.608Z,989.021
2023-12-27T20:10:49.442Z,989.012
2023-12-27T20:12:50.332Z,989.011
2023-12-27T20:14:50.076Z,989.036
2023-12-27T20:16:49.897Z,988.972
2023-12-27T20:18:49.981Z,989.034
2023-12-27T20:20:49.812Z,988.955
2023-12-27T20:22:49.666Z,988.991
2023-12-27T20:24:49.523Z,988.866
2023-12-27T20:26:50.257Z,988.954
2023-12-27T20:28:49.853Z,988.913
2023-12-27T20:30:49.791Z,989.003
2023-12-27T20:32:49.599Z,988.869
2023-12-27T20:34:49.641Z,988.964
2023-12-27T20:36:49.600Z,988.919
2023-12-27T20:38:49.357Z,988.854
2023-12-27T20:40:50.184Z,988.930
2023-12-27T20:42:52.279Z,988.901
2023-12-27T20:44:49.589Z,988.947
2023-12-27T20:46:49.502Z,988.856
2023-12-27T20:48:49.696Z,988.885
2023-12-27T20:50:49.434Z,988.813
2023-12-27T20:52:50.263Z,988.874
2023-12-27T20:54:50.224Z,988.830
2023-12-27T20:56:50.082Z,988.770
2023-12-27T20:58:49.874Z,988.843
2023-12-27T21:00:49.805Z,988.739
2023-12-27T21:02:49.552Z,988.732
2023-12-27T21:04:50.353Z,988.686
2023-12-27T21:06:50.160Z,988.645
2023-12-27T21:08:49.958Z,988.630
2023-12-27T21:10:49.750Z,988.662
2023-12-27T21:12:49.665Z,988.715
2023-12-27T21:14:49.407Z,988.692
2023-12-27T21:16:50.218Z,988.675
2023-12-27T21:18:50.280Z,988.794
2023-12-27T21:20:50.274Z,988.789
2023-12-27T21:22:50.080Z,988.818
2023-12-27T21:24:49.993Z,988.947
2023-12-27T21:26:49.932Z,988.805
2023-12-27T21:28:49.728Z,988.901
2023-12-27T21:30:49.646Z,988.883
2023-12-27T21:32:49.605Z,988.827
2023-12-27T21:34:49.555Z,988.909
2023-12-27T21:36:49.392Z,988.852
2023-12-27T21:38:50.194Z,988.809
2023-12-27T21:40:50.014Z,988.837
2023-12-27T21:42:49.865Z,988.887
2023-12-27T21:44:49.625Z,988.833
2023-12-27T21:46:49.427Z,988.965
2023-12-27T21:48:50.391Z,988.908
2023-12-27T21:50:50.286Z,988.879
2023-12-27T21:52:50.070Z,988.844
2023-12-27T21:54:50.040Z,988.881
2023-12-27T21:56:49.918Z,988.758
2023-12-27T21:58:49.746Z,988.873
2023-12-27T22:00:49.663Z,988.777
2023-12-27T22:02:49.478Z,988.752
2023-12-27T22:04:49.393Z,988.818
2023-12-27T22:06:50.287Z,988.871
2023-12-27T22:08:50.204Z,988.905
2023-12-27T22:10:50.001Z,988.931
2023-12-27T22:12:49.921Z,988.906
2023-12-27T22:14:49.635Z,988.922
2023-12-27T22:16:49.477Z,988.960
2023-12-27T22:18:50.387Z,989.001
2023-12-27T22:20:50.314Z,989.056
2023-12-27T22:22:50.128Z,989.010
2023-12-27T22:24:50.034Z,988.972
2023-12-27T22:26:49.950Z,989.029
2023-12-27T22:28:49.771Z,989.065
2023-12-27T22:30:49.727Z,989.049
2023-12-27T22:32:49.653Z,989.118
2023-12-27T22:34:49.638Z,989.100
2023-12-27T22:36:49.431Z,989.153
2023-12-27T22:38:50.239Z,989.114
2023-12-27T22:40:50.039Z,989.035
2023-12-27T22:42:49.944Z,989.071
2023-12-27T22:44:49.652Z,988.946
2023-12-27T22:46:49.490Z,989.117
2023-12-27T22:48:50.421Z,989.008
2023-12-27T22:50:50.318Z,988.892
2023-12-27T22:52:50.113Z,988.938
2023-12-27T22:54:49.994Z,989.006
2023-12-27T22:56:49.733Z,988.857
2023-12-27T22:58:49.578Z,988.973
2023-12-27T23:00:49.509Z,989.107
2023-12-27T23:02:49.388Z,989.037
2023-12-27T23:04:50.318Z,989.148
2023-12-27T23:06:50.326Z,989.083
2023-12-27T23:08:50.284Z,989.057
2023-12-27T23:10:50.078Z,989.058
2023-12-27T23:12:49.943Z,988.984
2023-12-27T23:14:49.654Z,988.933
2023-12-27T23:16:49.514Z,988.978
2023-12-27T23:18:50.470Z,988.863
2023-12-27T23:20:50.319Z,988.942
2023-12-27T23:22:50.126Z,989.007
2023-12-27T23:24:49.844Z,989.007
2023-12-27T23:26:49.856Z,989.024
2023-12-27T23:28:49.613Z,989.052
2023-12-27T23:30:50.279Z,989.012
2023-12-27T23:32:51.622Z,988.993
2023-12-27T23:34:50.154Z,989.042
2023-12-27T23:36:50.154Z,989.003
2023-12-27T23:38:49.845Z,989.097
2023-12-27T23:40:49.668Z,988.889
2023-12-27T23:42:49.562Z,988.925
2023-12-27T23:44:50.323Z,988.964
2023-12-27T23:46:50.112Z,988.885
2023-12-27T23:48:50.082Z,988.805
2023-12-27T23:50:49.962Z,988.946
2023-12-27T23:52:49.750Z,988.950
2023-12-27T23:54:49.657Z,989.000
2023-12-27T23:56:49.367Z,988.849
2023-12-27T23:58:50.202Z,988.923
